フォルタレザ の空港の天気 - METARとTAF

フォルタレザ/ピント・マーティンズ国際空港 ( SBFZ / FOR ) - ブラジル セアラー州フォルタレザ
飛行場実況気象(Metar)
観測時間10/15 14:00 BRT (10/15 17:00 UTC)
風向・風速東北東 8m/s
視程10km以上
天気現象
少しの雲 雲底高度 700m
気温30℃
湿度62%
気圧1012hPa
METARSBFZ 151700Z 07015KT 9999 FEW023 30/22 Q1012
過去の天気等 Google飛行場航空写真 Wunderground天気予報

過去48時間のMETAR

飛行場予報(TAF)
発表時間: 10/15 13:00 BRT (10/15 16:00 UTC)
予報対象時間: 15日15時 BRT ~ 16日15時 BRT
風向・風速東 8m/s
視程10km以上
少しの雲 雲底高度 760m
15日17時 BRT ~ 15日19時 BRT に徐々に
風向・風速北東 4m/s
15日23時 BRT ~ 16日1時 BRT に徐々に
風向・風速東 5m/s
16日4時 BRT ~ 16日6時 BRT に徐々に
風向・風速東南東 8m/s
16日9時 BRT ~ 16日11時 BRT に徐々に
風向・風速東 10m/s
TAF SBFZ 151600Z 1518/1618 08015KT 9999 FEW025 TN25/1608Z TX31/1615Z
BECMG 1520/1522 05008KT
BECMG 1602/1604 09010KT
BECMG 1607/1609 12015KT
BECMG 1612/1614 09020KT RMK PEH